Watertown, CT

11:12 PM EDT on March 28, 2015 (GMT -0400)
Tweed-New Haven | | Change Station
CLOSE
Current Station
Airport
Location: New Haven,
Elevation: 13 ft
Nearby Weather Stations
Active Advisory: Special Statement

Elev 13 ft 41.26 °N, 72.89 °W | Updated 6 minutes ago

Overcast
Overcast
29 °F
Feels Like 22 °F
N
7
Wind Variable Wind from NW

Today
High -- | Low -- °F
--% Chance of Precip.
Yesterday
High -- | Low -- °F
Precip. -- in
6:42 AM 7:13 PM
Waxing Gibbous, 67% visible
Pressure 30.05 in
Visibility 2.5 miles
Clouds Few 1200 ft
Overcast 2200 ft
Windchill 22 °F
Dew Point 26 °F
Humidity 89%
Rainfall 0.00 in
Snow Depth Not available.
UV 0 out of 12
Pollen 3.60 out of 12
Air Quality Not available.
Flu Activity Not available.
SPECI KHVN 290306Z AUTO 32006KT 2 1/2SM -SN BR FEW012 OVC022 M02/M03 A3005 RMK AO2 P0000 T10171033

More Conditions Fewer Conditions

Pressure 30.05 in
Visibility 2.5 miles
Clouds Few 1200 ft
Overcast 2200 ft
Windchill 22 °F
Dew Point 26 °F
Humidity 89%
Rainfall 0.00 in
Snow Depth Not available.
UV 0 out of 12
Pollen 3.60 out of 12
Air Quality Not available.
Flu Activity Not available.
SPECI KHVN 290306Z AUTO 32006KT 2 1/2SM -SN BR FEW012 OVC022 M02/M03 A3005 RMK AO2 P0000 T10171033

More Conditions Fewer Conditions

10-Day Weather Forecast

Almanac

Astronomy

Mar. 28, 2015 Rise Set
Actual Time
Civil Twilight
Nautical Twilight
Astronomical Twilight
Moon
Length of Visible Light
Length of Day
Tomorrow will be .
, % of the Moon is Illuminated

Today's Extremes

State Highs State Lows

Community

WunderPhotos

Upload Photos

1,809,174 photos uploaded!

WunderBlogs® & News

Nearby

Air Quality

  Air Quality AQ Index Pollutant
Not available.

Snow Depth

Station Depth Elevation

Earthquake Activity

City Distance Mag. Time & Date
Minimum magnitude displayed is 2.5.

Coastal Water Temperatures

Place Temperature

Stations

Nearby Weather Stations

Station Location Temp. Windchill Dew Point Humidity Wind Precip. Elev Updated Type
                   
Special Statement
Statement as of 8:00 PM EDT on March 28, 2015

... Areas of black ice possible overnight...

Snow showers will gradually taper off this evening. Much of the
snow which occurred today melted on contact with most pavement
surfaces. However... as the sun sets... lingering water from melted
snow will likely freeze up as temperatures fall well below the
freezing mark. This will create areas of black ice... especially on
untreated pavement surfaces including roadways... parking
lots... and driveways. Motorists and pedestrians are urged to use
extra caution if driving or walking this evening and overnight.